Guacui, Brazil
Current Conditions -  °F | °C
As of 5:00 PM on Friday 28 Nov 2014 (Local Time) from SBCP Reporting Station
Overcast Overcast  
Wind Chill: 77°   Ceiling: 800
Heat Index: 78°   Visibility: 6mi
Dew Point: 72°   Wind: 14mph
Humidity: 83%   Direction: 180°S
Pressure: 29.91"   Gusts: NA
Location:  20.78°S, 41.68°W
Report Text: SBCP 281900Z 18012KT 9999 BKN008 OVC090 25/22 Q1013
Loading
Personal Weather Stations






























Interactive Weather Map New forecast layout! Learn more

10-Day Weather Forecast

Advertisements
Track Severe Weather on mobile